Terminal Aerodrome Forecast
Issued by NWS

Home | Current Version | Previous Version | Graphics & Text | Print | Product List | Glossary On
Versions: 1 2 3 4 5 6 7 8 9 10 11 12 13 14 15 16 17 18 19 20 21 22 23 24 25 26 27 28 29 30 31
000
FTUS43 KLOT 231512 AAB
TAFMDW
TAF AMD
KMDW 231512Z 2315/2412 36012G16KT P6SM OVC009
     FM231800 36009KT P6SM OVC015
     FM240100 33005KT P6SM OVC012
     FM240900 VRB03KT 5SM BR OVC009=

USA.gov is the U.S. government's official web portal to all federal, state and local government web resources and services.